Terminal Aerodrome Forecast
Issued by NWS Wilmington, OH

Current Version | Previous Version | Text Only | Print | Product List | Glossary Off
Versions: 1 2 3 4 5 6 7 8 9 10 11 12 13 14 15 16 17 18

154
FTUS41 KILN 221453 AAD
TAFDAY
TAF AMD
KDAY 221453Z 2215/2312 29018G25KT 6SM -TSRA OVC025CB
     FM221515 24014G23KT P6SM VCSH OVC060
     FM222000 25013G23KT P6SM VCSH BKN050
     FM222300 29009G16KT P6SM SCT045
     FM230200 32008KT P6SM SCT130=

USA.gov is the U.S. government's official web portal to all federal, state and local government web resources and services.